PWSweather.com
Personal Weather Stations
Station Observations

DeskleSI

Lat: 46.0525, Lon: 13.6103

Elevation: 300

Station Type: Oregon Scientific WMR200

http://vreme-deskle.slohosting.com/

Latest ConditionsUpdated 8:15:03 PM GMT+01:01 Wednesday, Apr 24, 2019
Currently Today's Max Today's Min Today's Average
Temperature 60.4°F15.8°C 68.0°F20.0°C 53.8°F12.1°C 58.8°F14.9°C
Dew Point 55.6°F13.1°C 62.0°F16.7°C 52.1°F11.2°C 55.3°F12.9°C
Winds Calm Calm 9.8 mph -15.8 kmh - - 1.7 mph 2.7 kmh
Wind Gusts 3.8 mph6.1 kmh 15.9 mph25.6 kmh - -
Humidity 84% 98% 62% 89%
Pressure 30.01 in1016.3 mb 30.04 in1017.3 mb 29.86 in1011.2 mb -
Precipitation - 0.50 in12.7 mm - -
Hour Temp Dew Point Humidity Winds Wind Gusts Pressure Precip Precip Rate Daily Precip Total
08:15 PM 60.4°F15.8°C 55.6°F13.1°C 84% Calm Calm 3.8 mph6.1 kmh 30.01 in1016.3 mb 0.00 in0.0 mm 0.00 in0.0 mm 0.50 in12.7 mm
08:10 PM 60.4°F15.8°C 55.3°F12.9°C 83% 2.9 mph WNW4.7 kmh WNW 3.8 mph6.1 kmh 30.01 in1016.3 mb 0.00 in0.0 mm 0.00 in0.0 mm 0.50 in12.7 mm
08:05 PM 60.6°F15.9°C 55.4°F13.0°C 83% 0.9 mph WNW1.4 kmh WNW 2.9 mph4.7 kmh 30.01 in1016.3 mb 0.00 in0.0 mm 0.00 in0.0 mm 0.50 in12.7 mm
08:00 PM 60.8°F16.0°C 55.3°F12.9°C 82% 1.3 mph WNW2.1 kmh WNW 3.4 mph5.5 kmh 30.01 in1016.3 mb 0.00 in0.0 mm 0.00 in0.0 mm 0.50 in12.7 mm
07:55 PM 61.0°F16.1°C 55.4°F13.0°C 82% 2.2 mph W3.5 kmh W 3.4 mph5.5 kmh 30.01 in1016.3 mb 0.00 in0.0 mm 0.00 in0.0 mm 0.50 in12.7 mm
07:50 PM 61.0°F16.1°C 55.4°F13.0°C 82% Calm Calm 3.4 mph5.5 kmh 30.01 in1016.3 mb 0.00 in0.0 mm 0.00 in0.0 mm 0.50 in12.7 mm
07:45 PM 61.0°F16.1°C 55.4°F13.0°C 82% 2.5 mph WSW4.0 kmh WSW 4.0 mph6.4 kmh 30.01 in1016.3 mb 0.00 in0.0 mm 0.00 in0.0 mm 0.50 in12.7 mm
07:40 PM 61.2°F16.2°C 55.6°F13.1°C 82% 2.0 mph SW3.2 kmh SW 6.3 mph10.1 kmh 30.01 in1016.3 mb 0.00 in0.0 mm 0.00 in0.0 mm 0.50 in12.7 mm
07:35 PM 61.0°F16.1°C 55.4°F13.0°C 82% 2.9 mph WSW4.7 kmh WSW 6.3 mph10.1 kmh 30.01 in1016.3 mb 0.00 in0.0 mm 0.00 in0.0 mm 0.50 in12.7 mm
07:30 PM 61.0°F16.1°C 55.4°F13.0°C 82% 2.0 mph WSW3.2 kmh WSW 6.3 mph10.1 kmh 30.01 in1016.3 mb 0.00 in0.0 mm 0.00 in0.0 mm 0.50 in12.7 mm
07:25 PM 61.0°F16.1°C 55.1°F12.8°C 81% 3.6 mph WSW5.8 kmh WSW 5.4 mph8.7 kmh 30.01 in1016.3 mb 0.00 in0.0 mm 0.00 in0.0 mm 0.50 in12.7 mm
07:20 PM 61.0°F16.1°C 55.1°F12.8°C 81% 2.9 mph WSW4.7 kmh WSW 3.8 mph6.1 kmh 30.01 in1016.3 mb 0.00 in0.0 mm 0.00 in0.0 mm 0.50 in12.7 mm
07:15 PM 61.0°F16.1°C 55.1°F12.8°C 81% 1.3 mph W2.1 kmh W 5.6 mph9.0 kmh 30.01 in1016.3 mb 0.00 in0.0 mm 0.00 in0.0 mm 0.50 in12.7 mm
07:10 PM 61.0°F16.1°C 55.1°F12.8°C 81% 3.1 mph W5.0 kmh W 5.6 mph9.0 kmh 30.01 in1016.3 mb 0.00 in0.0 mm 0.00 in0.0 mm 0.50 in12.7 mm
07:05 PM 61.2°F16.2°C 54.9°F12.7°C 80% 3.8 mph SW6.1 kmh SW 4.3 mph6.9 kmh 29.98 in1015.2 mb 0.00 in0.0 mm 0.00 in0.0 mm 0.50 in12.7 mm
07:00 PM 61.2°F16.2°C 54.2°F12.3°C 78% 1.3 mph SW2.1 kmh SW 2.0 mph3.2 kmh 29.98 in1015.2 mb 0.00 in0.0 mm 0.00 in0.0 mm 0.50 in12.7 mm
06:55 PM 61.5°F16.4°C 54.9°F12.7°C 79% Calm Calm 1.1 mph1.8 kmh 29.98 in1015.2 mb 0.00 in0.0 mm 0.00 in0.0 mm 0.50 in12.7 mm
06:50 PM 61.7°F16.5°C 55.1°F12.8°C 79% Calm Calm -- 30.04 in1017.3 mb 0.00 in0.0 mm 0.00 in0.0 mm 0.50 in12.7 mm
06:45 PM 61.7°F16.5°C 54.8°F12.7°C 78% Calm Calm 3.8 mph6.1 kmh 30.04 in1017.3 mb 0.00 in0.0 mm 0.00 in0.0 mm 0.50 in12.7 mm
06:40 PM 62.1°F16.7°C 54.8°F12.7°C 77% Calm Calm 3.8 mph6.1 kmh 30.04 in1017.3 mb 0.00 in0.0 mm 0.00 in0.0 mm 0.50 in12.7 mm
06:35 PM 62.2°F16.8°C 55.3°F12.9°C 78% 2.7 mph WSW4.3 kmh WSW 4.0 mph6.4 kmh 30.01 in1016.3 mb 0.00 in0.0 mm 0.00 in0.0 mm 0.50 in12.7 mm
06:30 PM 62.6°F17.0°C 55.3°F12.9°C 77% 2.2 mph W3.5 kmh W 4.0 mph6.4 kmh 30.01 in1016.3 mb 0.00 in0.0 mm 0.00 in0.0 mm 0.50 in12.7 mm
06:25 PM 63.0°F17.2°C 55.3°F12.9°C 76% 2.5 mph W4.0 kmh W 3.6 mph5.8 kmh 30.01 in1016.3 mb 0.00 in0.0 mm 0.00 in0.0 mm 0.50 in12.7 mm
06:20 PM 63.3°F17.4°C 55.3°F12.9°C 75% Calm Calm 2.2 mph3.5 kmh 30.01 in1016.3 mb 0.00 in0.0 mm 0.00 in0.0 mm 0.50 in12.7 mm
06:15 PM 63.7°F17.6°C 55.6°F13.1°C 75% Calm Calm 2.9 mph4.7 kmh 30.01 in1016.3 mb 0.00 in0.0 mm 0.00 in0.0 mm 0.50 in12.7 mm
06:10 PM 63.7°F17.6°C 55.2°F12.9°C 74% 1.6 mph WSW2.6 kmh WSW 3.4 mph5.5 kmh 30.01 in1016.3 mb 0.00 in0.0 mm 0.00 in0.0 mm 0.50 in12.7 mm
06:05 PM 64.0°F17.8°C 55.6°F13.1°C 74% 2.2 mph W3.5 kmh W 4.9 mph7.9 kmh 30.01 in1016.3 mb 0.00 in0.0 mm 0.00 in0.0 mm 0.50 in12.7 mm
06:00 PM 64.2°F17.9°C 55.4°F13.0°C 73% 1.1 mph WNW1.8 kmh WNW 5.8 mph9.3 kmh 30.01 in1016.3 mb 0.00 in0.0 mm 0.00 in0.0 mm 0.50 in12.7 mm
05:55 PM 64.2°F17.9°C 55.4°F13.0°C 73% 3.4 mph WNW5.5 kmh WNW 5.8 mph9.3 kmh 30.01 in1016.3 mb 0.00 in0.0 mm 0.00 in0.0 mm 0.50 in12.7 mm
05:50 PM 64.6°F18.1°C 55.3°F12.9°C 72% 3.4 mph NW5.5 kmh NW 6.7 mph10.8 kmh 30.01 in1016.3 mb 0.00 in0.0 mm 0.00 in0.0 mm 0.50 in12.7 mm
05:45 PM 64.8°F18.2°C 55.5°F13.1°C 72% 3.8 mph NW6.1 kmh NW 6.7 mph10.8 kmh 30.01 in1016.3 mb 0.00 in0.0 mm 0.00 in0.0 mm 0.50 in12.7 mm
05:40 PM 64.9°F18.3°C 55.7°F13.2°C 72% 3.8 mph NW6.1 kmh NW 7.4 mph11.9 kmh 30.01 in1016.3 mb 0.00 in0.0 mm 0.00 in0.0 mm 0.50 in12.7 mm
05:35 PM 65.1°F18.4°C 55.9°F13.3°C 72% 4.7 mph WNW7.6 kmh WNW 9.8 mph15.8 kmh 30.01 in1016.3 mb 0.00 in0.0 mm 0.00 in0.0 mm 0.50 in12.7 mm
05:30 PM 65.3°F18.5°C 55.7°F13.2°C 71% 2.5 mph WNW4.0 kmh WNW 9.8 mph15.8 kmh 30.01 in1016.3 mb 0.00 in0.0 mm 0.00 in0.0 mm 0.50 in12.7 mm
05:25 PM 65.3°F18.5°C 55.7°F13.2°C 71% 3.1 mph W5.0 kmh W 11.0 mph17.7 kmh 30.01 in1016.3 mb 0.00 in0.0 mm 0.00 in0.0 mm 0.50 in12.7 mm
05:20 PM 65.3°F18.5°C 55.3°F12.9°C 70% 3.6 mph W5.8 kmh W 11.0 mph17.7 kmh 30.04 in1017.3 mb 0.00 in0.0 mm 0.00 in0.0 mm 0.50 in12.7 mm
05:15 PM 65.3°F18.5°C 54.9°F12.7°C 69% 6.9 mph WNW11.1 kmh WNW 10.3 mph16.6 kmh 30.04 in1017.3 mb 0.00 in0.0 mm 0.00 in0.0 mm 0.50 in12.7 mm
05:10 PM 65.5°F18.6°C 55.0°F12.8°C 69% 6.3 mph W10.1 kmh W 11.9 mph19.2 kmh 30.04 in1017.3 mb 0.00 in0.0 mm 0.00 in0.0 mm 0.50 in12.7 mm
05:05 PM 65.7°F18.7°C 54.8°F12.7°C 68% 7.6 mph W12.2 kmh W 11.9 mph19.2 kmh 30.01 in1016.3 mb 0.00 in0.0 mm 0.00 in0.0 mm 0.50 in12.7 mm
05:00 PM 65.8°F18.8°C 55.0°F12.8°C 68% 6.9 mph W11.1 kmh W 11.9 mph19.2 kmh 30.01 in1016.3 mb 0.00 in0.0 mm 0.00 in0.0 mm 0.50 in12.7 mm
04:55 PM 65.8°F18.8°C 54.6°F12.6°C 67% 8.7 mph WNW14.0 kmh WNW 11.0 mph17.7 kmh 30.01 in1016.3 mb 0.00 in0.0 mm 0.00 in0.0 mm 0.50 in12.7 mm
04:50 PM 66.0°F18.9°C 54.3°F12.4°C 66% 6.7 mph W10.8 kmh W 13.2 mph21.2 kmh 30.01 in1016.3 mb 0.00 in0.0 mm 0.00 in0.0 mm 0.50 in12.7 mm
04:45 PM 66.2°F19.0°C 53.2°F11.8°C 63% 6.9 mph W11.1 kmh W 14.5 mph23.3 kmh 30.01 in1016.3 mb 0.00 in0.0 mm 0.00 in0.0 mm 0.50 in12.7 mm
04:40 PM 66.2°F19.0°C 54.1°F12.3°C 65% 7.4 mph W11.9 kmh W 14.5 mph23.3 kmh 30.01 in1016.3 mb 0.00 in0.0 mm 0.00 in0.0 mm 0.50 in12.7 mm
04:35 PM 66.4°F19.1°C 53.4°F11.9°C 63% 6.3 mph W10.1 kmh W 13.2 mph21.2 kmh 30.01 in1016.3 mb 0.00 in0.0 mm 0.00 in0.0 mm 0.50 in12.7 mm
04:30 PM 66.4°F19.1°C 53.4°F11.9°C 63% 8.1 mph W13.0 kmh W 15.9 mph25.6 kmh 30.01 in1016.3 mb 0.00 in0.0 mm 0.00 in0.0 mm 0.50 in12.7 mm
04:25 PM 66.4°F19.1°C 53.8°F12.1°C 64% 4.9 mph W7.9 kmh W 15.9 mph25.6 kmh 30.01 in1016.3 mb 0.00 in0.0 mm 0.00 in0.0 mm 0.50 in12.7 mm
04:20 PM 66.6°F19.2°C 54.0°F12.2°C 64% 9.8 mph W15.8 kmh W 12.5 mph20.1 kmh 30.01 in1016.3 mb 0.00 in0.0 mm 0.00 in0.0 mm 0.50 in12.7 mm
04:15 PM 66.7°F19.3°C 54.6°F12.6°C 65% 9.6 mph W15.4 kmh W 13.0 mph20.9 kmh 30.01 in1016.3 mb 0.00 in0.0 mm 0.00 in0.0 mm 0.50 in12.7 mm
04:10 PM 66.7°F19.3°C 54.2°F12.3°C 64% 6.9 mph W11.1 kmh W 13.0 mph20.9 kmh 30.01 in1016.3 mb 0.00 in0.0 mm 0.00 in0.0 mm 0.50 in12.7 mm
04:05 PM 66.9°F19.4°C 54.3°F12.4°C 64% 5.6 mph W9.0 kmh W 10.5 mph16.9 kmh 30.01 in1016.3 mb 0.00 in0.0 mm 0.00 in0.0 mm 0.50 in12.7 mm
04:00 PM 67.1°F19.5°C 55.4°F13.0°C 66% 7.6 mph W12.2 kmh W 13.9 mph22.4 kmh 30.01 in1016.3 mb 0.00 in0.0 mm 0.00 in0.0 mm 0.50 in12.7 mm
03:55 PM 67.3°F19.6°C 55.1°F12.8°C 65% 8.5 mph W13.7 kmh W 13.9 mph22.4 kmh 30.01 in1016.3 mb 0.00 in0.0 mm 0.00 in0.0 mm 0.50 in12.7 mm
03:50 PM 67.1°F19.5°C 54.5°F12.5°C 64% 7.4 mph W11.9 kmh W 13.2 mph21.2 kmh 29.98 in1015.2 mb 0.00 in0.0 mm 0.00 in0.0 mm 0.50 in12.7 mm
03:45 PM 67.5°F19.7°C 54.0°F12.2°C 62% 5.4 mph W8.7 kmh W 15.2 mph24.5 kmh 29.98 in1015.2 mb 0.00 in0.0 mm 0.00 in0.0 mm 0.50 in12.7 mm
03:40 PM 67.8°F19.9°C 55.6°F13.1°C 65% 4.3 mph W6.9 kmh W 15.2 mph24.5 kmh 29.98 in1015.2 mb 0.00 in0.0 mm 0.00 in0.0 mm 0.50 in12.7 mm
03:35 PM 68.0°F20.0°C 56.6°F13.7°C 67% 7.4 mph W11.9 kmh W 12.5 mph20.1 kmh 29.98 in1015.2 mb 0.00 in0.0 mm 0.00 in0.0 mm 0.50 in12.7 mm
03:30 PM 68.0°F20.0°C 57.0°F13.9°C 68% 4.7 mph W7.6 kmh W 12.5 mph20.1 kmh 29.98 in1015.2 mb 0.00 in0.0 mm 0.00 in0.0 mm 0.50 in12.7 mm
03:25 PM 67.6°F19.8°C 55.9°F13.3°C 66% 3.1 mph W5.0 kmh W 10.1 mph16.3 kmh 29.98 in1015.2 mb 0.00 in0.0 mm 0.00 in0.0 mm 0.50 in12.7 mm
03:20 PM 66.9°F19.4°C 56.0°F13.3°C 68% 3.8 mph W6.1 kmh W 10.5 mph16.9 kmh 29.98 in1015.2 mb 0.00 in0.0 mm 0.00 in0.0 mm 0.50 in12.7 mm
03:15 PM 66.7°F19.3°C 55.8°F13.2°C 68% 6.0 mph W9.7 kmh W 13.2 mph21.2 kmh 29.98 in1015.2 mb 0.00 in0.0 mm 0.00 in0.0 mm 0.50 in12.7 mm
03:10 PM 66.7°F19.3°C 55.8°F13.2°C 68% 4.7 mph WNW7.6 kmh WNW 13.2 mph21.2 kmh 29.98 in1015.2 mb 0.00 in0.0 mm 0.00 in0.0 mm 0.50 in12.7 mm
03:05 PM 67.1°F19.5°C 56.6°F13.7°C 69% 5.8 mph WNW9.3 kmh WNW 10.5 mph16.9 kmh 29.98 in1015.2 mb 0.00 in0.0 mm 0.00 in0.0 mm 0.50 in12.7 mm
03:00 PM 67.3°F19.6°C 56.8°F13.8°C 69% 4.0 mph WNW6.4 kmh WNW 12.3 mph19.8 kmh 29.98 in1015.2 mb 0.00 in0.0 mm 0.00 in0.0 mm 0.50 in12.7 mm
02:55 PM 67.3°F19.6°C 57.2°F14.0°C 70% 5.6 mph WNW9.0 kmh WNW 14.5 mph23.3 kmh 29.98 in1015.2 mb 0.00 in0.0 mm 0.00 in0.0 mm 0.50 in12.7 mm
02:50 PM 66.9°F19.4°C 57.6°F14.2°C 72% 6.9 mph W11.1 kmh W 14.5 mph23.3 kmh 29.98 in1015.2 mb 0.00 in0.0 mm 0.00 in0.0 mm 0.50 in12.7 mm
02:45 PM 66.7°F19.3°C 57.0°F13.9°C 71% 6.3 mph WNW10.1 kmh WNW 13.0 mph20.9 kmh 29.98 in1015.2 mb 0.00 in0.0 mm 0.00 in0.0 mm 0.50 in12.7 mm
02:40 PM 66.9°F19.4°C 57.2°F14.0°C 71% 4.7 mph WNW7.6 kmh WNW 13.0 mph20.9 kmh 29.98 in1015.2 mb 0.00 in0.0 mm 0.00 in0.0 mm 0.50 in12.7 mm
02:35 PM 66.7°F19.3°C 58.2°F14.6°C 74% 9.2 mph WNW14.8 kmh WNW 13.4 mph21.6 kmh 29.98 in1015.2 mb 0.00 in0.0 mm 0.00 in0.0 mm 0.50 in12.7 mm
02:30 PM 66.6°F19.2°C 58.4°F14.7°C 75% 8.7 mph W14.0 kmh W 13.4 mph21.6 kmh 29.98 in1015.2 mb 0.00 in0.0 mm 0.00 in0.0 mm 0.50 in12.7 mm
02:25 PM 66.4°F19.1°C 58.2°F14.6°C 75% 3.8 mph W6.1 kmh W 10.5 mph16.9 kmh 29.98 in1015.2 mb 0.00 in0.0 mm 0.00 in0.0 mm 0.50 in12.7 mm
02:20 PM 66.4°F19.1°C 58.9°F14.9°C 77% 7.8 mph W12.6 kmh W 11.9 mph19.2 kmh 29.98 in1015.2 mb 0.00 in0.0 mm 0.00 in0.0 mm 0.50 in12.7 mm
02:15 PM 66.6°F19.2°C 59.1°F15.1°C 77% 4.3 mph WNW6.9 kmh WNW 12.5 mph20.1 kmh 29.98 in1015.2 mb 0.00 in0.0 mm 0.00 in0.0 mm 0.50 in12.7 mm
02:10 PM 66.6°F19.2°C 58.8°F14.9°C 76% 4.0 mph WNW6.4 kmh WNW 12.5 mph20.1 kmh 29.98 in1015.2 mb 0.00 in0.0 mm 0.00 in0.0 mm 0.50 in12.7 mm
02:05 PM 65.8°F18.8°C 59.5°F15.3°C 80% 6.7 mph NW10.8 kmh NW 12.3 mph19.8 kmh 29.98 in1015.2 mb 0.00 in0.0 mm 0.00 in0.0 mm 0.50 in12.7 mm
02:00 PM 65.3°F18.5°C 59.3°F15.2°C 81% 3.4 mph NW5.5 kmh NW 12.3 mph19.8 kmh 29.98 in1015.2 mb 0.00 in0.0 mm 0.00 in0.0 mm 0.50 in12.7 mm
01:55 PM 65.3°F18.5°C 59.7°F15.4°C 82% 4.0 mph WNW6.4 kmh WNW 13.2 mph21.2 kmh 29.98 in1015.2 mb 0.00 in0.0 mm 0.00 in0.0 mm 0.50 in12.7 mm
01:50 PM 65.1°F18.4°C 60.5°F15.8°C 85% 4.7 mph NW7.6 kmh NW 13.2 mph21.2 kmh 29.98 in1015.2 mb 0.00 in0.0 mm 0.00 in0.0 mm 0.50 in12.7 mm
01:45 PM 65.1°F18.4°C 61.2°F16.2°C 87% 3.8 mph NW6.1 kmh NW 11.0 mph17.7 kmh 29.98 in1015.2 mb 0.00 in0.0 mm 0.00 in0.0 mm 0.50 in12.7 mm
01:40 PM 64.8°F18.2°C 60.1°F15.6°C 85% 7.4 mph NW11.9 kmh NW 11.0 mph17.7 kmh 29.98 in1015.2 mb 0.00 in0.0 mm 0.00 in0.0 mm 0.50 in12.7 mm
01:35 PM 64.6°F18.1°C 61.3°F16.3°C 89% 7.6 mph NW12.2 kmh NW 9.4 mph15.1 kmh 29.98 in1015.2 mb 0.00 in0.0 mm 0.00 in0.0 mm 0.50 in12.7 mm
01:30 PM 64.4°F18.0°C 61.7°F16.5°C 91% 1.1 mph NW1.8 kmh NW 4.7 mph7.6 kmh 29.98 in1015.2 mb 0.00 in0.0 mm 0.00 in0.0 mm 0.50 in12.7 mm
01:25 PM 64.0°F17.8°C 62.0°F16.7°C 93% 2.5 mph NW4.0 kmh NW 6.0 mph9.7 kmh 29.98 in1015.2 mb 0.00 in0.0 mm 0.00 in0.0 mm 0.50 in12.7 mm
01:20 PM 63.3°F17.4°C 61.9°F16.6°C 95% Calm Calm 6.0 mph9.7 kmh 29.98 in1015.2 mb 0.00 in0.0 mm 0.00 in0.0 mm 0.50 in12.7 mm
01:15 PM 63.0°F17.2°C 61.8°F16.6°C 96% 3.6 mph NW5.8 kmh NW 6.3 mph10.1 kmh 29.98 in1015.2 mb 0.00 in0.0 mm 0.00 in0.0 mm 0.50 in12.7 mm
01:10 PM 62.6°F17.0°C 61.7°F16.5°C 97% 2.2 mph WNW3.5 kmh WNW 6.3 mph10.1 kmh 29.98 in1015.2 mb 0.00 in0.0 mm 0.00 in0.0 mm 0.50 in12.7 mm
01:05 PM 62.2°F16.8°C 61.4°F16.3°C 97% Calm Calm 2.2 mph3.5 kmh 29.98 in1015.2 mb 0.00 in0.0 mm 0.00 in0.0 mm 0.50 in12.7 mm
01:00 PM 61.5°F16.4°C 60.7°F15.9°C 97% 0.9 mph S1.4 kmh S 2.2 mph3.5 kmh 29.98 in1015.2 mb 0.00 in0.0 mm 0.00 in0.0 mm 0.50 in12.7 mm
12:55 PM 61.3°F16.3°C 60.5°F15.8°C 97% Calm Calm -- 29.98 in1015.2 mb 0.00 in0.0 mm 0.00 in0.0 mm 0.50 in12.7 mm
12:50 PM 61.2°F16.2°C 60.3°F15.7°C 97% Calm Calm 1.3 mph2.1 kmh 29.98 in1015.2 mb 0.00 in0.0 mm 0.00 in0.0 mm 0.50 in12.7 mm
12:45 PM 61.0°F16.1°C 60.1°F15.6°C 97% Calm Calm 1.6 mph2.6 kmh 29.98 in1015.2 mb 0.00 in0.0 mm 0.00 in0.0 mm 0.50 in12.7 mm
12:40 PM 60.6°F15.9°C 60.1°F15.6°C 98% 0.9 mph SW1.4 kmh SW 1.6 mph2.6 kmh 29.98 in1015.2 mb 0.00 in0.0 mm 0.00 in0.0 mm 0.50 in12.7 mm
12:35 PM 60.6°F15.9°C 60.1°F15.6°C 98% Calm Calm 0.9 mph1.4 kmh 29.98 in1015.2 mb 0.00 in0.0 mm 0.00 in0.0 mm 0.50 in12.7 mm
12:30 PM 60.4°F15.8°C 59.9°F15.5°C 98% Calm Calm 2.5 mph4.0 kmh 29.98 in1015.2 mb 0.00 in0.0 mm 0.00 in0.0 mm 0.50 in12.7 mm
12:25 PM 60.1°F15.6°C 59.5°F15.3°C 98% Calm Calm 2.5 mph4.0 kmh 29.98 in1015.2 mb 0.00 in0.0 mm 0.00 in0.0 mm 0.50 in12.7 mm
12:20 PM 59.9°F15.5°C 59.3°F15.2°C 98% 0.9 mph NE1.4 kmh NE 0.9 mph1.4 kmh 29.98 in1015.2 mb 0.00 in0.0 mm 0.00 in0.0 mm 0.50 in12.7 mm
12:15 PM 59.9°F15.5°C 59.3°F15.2°C 98% Calm Calm 2.2 mph3.5 kmh 29.98 in1015.2 mb 0.00 in0.0 mm 0.00 in0.0 mm 0.50 in12.7 mm
12:10 PM 59.9°F15.5°C 59.3°F15.2°C 98% Calm Calm 2.2 mph3.5 kmh 29.98 in1015.2 mb 0.00 in0.0 mm 0.00 in0.0 mm 0.50 in12.7 mm
12:05 PM 59.7°F15.4°C 59.2°F15.1°C 98% 1.1 mph E1.8 kmh E 2.7 mph4.3 kmh 30.01 in1016.3 mb 0.00 in0.0 mm 0.00 in0.0 mm 0.50 in12.7 mm
12:00 PM 59.7°F15.4°C 59.2°F15.1°C 98% 1.1 mph E1.8 kmh E 3.1 mph5.0 kmh 30.01 in1016.3 mb 0.00 in0.0 mm 0.00 in0.0 mm 0.50 in12.7 mm
11:55 AM 59.7°F15.4°C 59.2°F15.1°C 98% 2.5 mph E4.0 kmh E 3.6 mph5.8 kmh 30.01 in1016.3 mb 0.00 in0.0 mm 0.00 in0.0 mm 0.50 in12.7 mm
11:50 AM 59.7°F15.4°C 59.2°F15.1°C 98% 2.9 mph E4.7 kmh E 3.6 mph5.8 kmh 29.98 in1015.2 mb 0.00 in0.0 mm 0.00 in0.0 mm 0.50 in12.7 mm
11:45 AM 59.7°F15.4°C 59.2°F15.1°C 98% 2.7 mph ENE4.3 kmh ENE 3.4 mph5.5 kmh 29.98 in1015.2 mb 0.00 in0.0 mm 0.00 in0.0 mm 0.50 in12.7 mm
11:40 AM 59.4°F15.2°C 58.8°F14.9°C 98% Calm Calm -- 29.98 in1015.2 mb 0.00 in0.0 mm 0.00 in0.0 mm 0.50 in12.7 mm
11:35 AM 59.0°F15.0°C 58.4°F14.7°C 98% Calm Calm -- 30.01 in1016.3 mb 0.00 in0.0 mm 0.00 in0.0 mm 0.50 in12.7 mm
11:30 AM 58.8°F14.9°C 58.3°F14.6°C 98% Calm Calm 1.1 mph1.8 kmh 30.01 in1016.3 mb 0.00 in0.0 mm 0.00 in0.0 mm 0.50 in12.7 mm
11:25 AM 58.8°F14.9°C 58.3°F14.6°C 98% Calm Calm 1.1 mph1.8 kmh 30.01 in1016.3 mb 0.00 in0.0 mm 0.00 in0.0 mm 0.50 in12.7 mm
11:20 AM 58.6°F14.8°C 58.1°F14.5°C 98% Calm Calm -- 29.98 in1015.2 mb 0.00 in0.0 mm 0.00 in0.0 mm 0.50 in12.7 mm
11:15 AM 58.6°F14.8°C 58.1°F14.5°C 98% Calm Calm 1.1 mph1.8 kmh 29.98 in1015.2 mb 0.00 in0.0 mm 0.00 in0.0 mm 0.50 in12.7 mm
11:10 AM 58.5°F14.7°C 57.9°F14.4°C 98% Calm Calm 1.6 mph2.6 kmh 29.98 in1015.2 mb 0.00 in0.0 mm 0.00 in0.0 mm 0.50 in12.7 mm
11:05 AM 58.3°F14.6°C 57.7°F14.3°C 98% 1.1 mph WNW1.8 kmh WNW 1.6 mph2.6 kmh 29.98 in1015.2 mb 0.00 in0.0 mm 0.00 in0.0 mm 0.50 in12.7 mm
11:00 AM 58.3°F14.6°C 57.7°F14.3°C 98% Calm Calm 2.5 mph4.0 kmh 29.98 in1015.2 mb 0.00 in0.0 mm 0.00 in0.0 mm 0.50 in12.7 mm
10:55 AM 58.1°F14.5°C 57.5°F14.2°C 98% Calm Calm 2.5 mph4.0 kmh 29.98 in1015.2 mb 0.00 in0.0 mm 0.00 in0.0 mm 0.50 in12.7 mm
10:50 AM 58.1°F14.5°C 57.5°F14.2°C 98% Calm Calm -- 30.01 in1016.3 mb 0.00 in0.0 mm 0.00 in0.0 mm 0.50 in12.7 mm
10:45 AM 57.9°F14.4°C 57.4°F14.1°C 98% Calm Calm 1.6 mph2.6 kmh 30.01 in1016.3 mb 0.00 in0.0 mm 0.00 in0.0 mm 0.50 in12.7 mm
10:40 AM 57.9°F14.4°C 57.4°F14.1°C 98% Calm Calm 1.6 mph2.6 kmh 30.01 in1016.3 mb 0.00 in0.0 mm 0.00 in0.0 mm 0.50 in12.7 mm
10:35 AM 57.9°F14.4°C 57.4°F14.1°C 98% Calm Calm 1.6 mph2.6 kmh 29.98 in1015.2 mb 0.00 in0.0 mm 0.00 in0.0 mm 0.50 in12.7 mm
10:30 AM 57.7°F14.3°C 57.2°F14.0°C 98% Calm Calm -- 29.98 in1015.2 mb 0.00 in0.0 mm 0.00 in0.0 mm 0.50 in12.7 mm
10:25 AM 57.6°F14.2°C 57.0°F13.9°C 98% Calm Calm -- 29.98 in1015.2 mb 0.04 in1.0 mm 0.00 in0.0 mm 0.50 in12.7 mm
10:20 AM 57.6°F14.2°C 57.0°F13.9°C 98% Calm Calm 2.2 mph3.5 kmh 29.98 in1015.2 mb 0.04 in1.0 mm 0.00 in0.0 mm 0.50 in12.7 mm
10:15 AM 57.4°F14.1°C 56.8°F13.8°C 98% 0.9 mph E1.4 kmh E 2.2 mph3.5 kmh 29.98 in1015.2 mb 0.08 in2.0 mm 0.00 in0.0 mm 0.50 in12.7 mm
10:10 AM 57.0°F13.9°C 56.5°F13.6°C 98% Calm Calm 3.1 mph5.0 kmh 29.98 in1015.2 mb 0.08 in2.0 mm 0.00 in0.0 mm 0.50 in12.7 mm
10:05 AM 56.8°F13.8°C 56.3°F13.5°C 98% Calm Calm 3.1 mph5.0 kmh 29.98 in1015.2 mb 0.08 in2.0 mm 0.00 in0.0 mm 0.50 in12.7 mm
10:00 AM 56.8°F13.8°C 56.3°F13.5°C 98% 1.6 mph E2.6 kmh E 2.5 mph4.0 kmh 29.98 in1015.2 mb 0.12 in3.0 mm 0.00 in0.0 mm 0.50 in12.7 mm
09:55 AM 56.8°F13.8°C 56.3°F13.5°C 98% Calm Calm -- 29.98 in1015.2 mb 0.12 in3.0 mm 0.00 in0.0 mm 0.50 in12.7 mm
09:50 AM 56.7°F13.7°C 56.1°F13.4°C 98% Calm Calm 2.9 mph4.7 kmh 29.98 in1015.2 mb 0.12 in3.0 mm 0.00 in0.0 mm 0.50 in12.7 mm
09:45 AM 56.7°F13.7°C 56.1°F13.4°C 98% 2.0 mph WSW3.2 kmh WSW 3.6 mph5.8 kmh 29.98 in1015.2 mb 0.12 in3.0 mm 0.00 in0.0 mm 0.50 in12.7 mm
09:40 AM 56.5°F13.6°C 55.9°F13.3°C 98% 1.3 mph WSW2.1 kmh WSW 3.6 mph5.8 kmh 29.98 in1015.2 mb 0.12 in3.0 mm 0.00 in0.0 mm 0.50 in12.7 mm
09:35 AM 56.3°F13.5°C 55.7°F13.2°C 98% 3.1 mph WSW5.0 kmh WSW 3.6 mph5.8 kmh 29.98 in1015.2 mb 0.12 in3.0 mm 0.00 in0.0 mm 0.50 in12.7 mm
09:30 AM 56.3°F13.5°C 55.7°F13.2°C 98% 0.9 mph W1.4 kmh W 2.7 mph4.3 kmh 29.98 in1015.2 mb 0.17 in4.3 mm 0.48 in12.2 mm 0.50 in12.7 mm
09:25 AM 56.1°F13.4°C 55.6°F13.1°C 98% 1.3 mph WSW2.1 kmh WSW 2.5 mph4.0 kmh 29.98 in1015.2 mb 0.13 in3.3 mm 0.00 in0.0 mm 0.46 in11.7 mm
09:20 AM 56.1°F13.4°C 55.3°F12.9°C 97% 0.9 mph SW1.4 kmh SW 2.5 mph4.0 kmh 29.98 in1015.2 mb 0.17 in4.3 mm 0.48 in12.2 mm 0.46 in11.7 mm
09:15 AM 55.9°F13.3°C 55.1°F12.8°C 97% 0.9 mph W1.4 kmh W 2.9 mph4.7 kmh 29.98 in1015.2 mb 0.13 in3.3 mm 0.00 in0.0 mm 0.42 in10.7 mm
09:10 AM 55.9°F13.3°C 55.4°F13.0°C 98% 2.2 mph WNW3.5 kmh WNW 2.9 mph4.7 kmh 29.98 in1015.2 mb 0.13 in3.3 mm 0.00 in0.0 mm 0.42 in10.7 mm
09:05 AM 55.9°F13.3°C 55.4°F13.0°C 98% Calm Calm -- 29.95 in1014.2 mb 0.17 in4.3 mm 0.48 in12.2 mm 0.42 in10.7 mm
09:00 AM 55.8°F13.2°C 54.9°F12.7°C 97% Calm Calm -- 29.95 in1014.2 mb 0.13 in3.3 mm 0.00 in0.0 mm 0.38 in9.7 mm
08:55 AM 55.8°F13.2°C 55.2°F12.9°C 98% Calm Calm 1.3 mph2.1 kmh 29.95 in1014.2 mb 0.13 in3.3 mm 0.00 in0.0 mm 0.38 in9.7 mm
08:50 AM 55.8°F13.2°C 55.2°F12.9°C 98% 1.1 mph E1.8 kmh E 3.6 mph5.8 kmh 29.95 in1014.2 mb 0.17 in4.3 mm 0.00 in0.0 mm 0.38 in9.7 mm
08:45 AM 55.6°F13.1°C 55.0°F12.8°C 98% Calm Calm 3.6 mph5.8 kmh 29.95 in1014.2 mb 0.17 in4.3 mm 0.00 in0.0 mm 0.38 in9.7 mm
08:40 AM 55.6°F13.1°C 55.0°F12.8°C 98% 2.0 mph E3.2 kmh E 2.5 mph4.0 kmh 29.95 in1014.2 mb 0.17 in4.3 mm 0.00 in0.0 mm 0.38 in9.7 mm
08:35 AM 55.4°F13.0°C 54.8°F12.7°C 98% Calm Calm 2.2 mph3.5 kmh 29.95 in1014.2 mb 0.17 in4.3 mm 0.60 in15.2 mm 0.38 in9.7 mm
08:30 AM 55.4°F13.0°C 54.6°F12.6°C 97% Calm Calm 2.5 mph4.0 kmh 29.95 in1014.2 mb 0.12 in3.0 mm 0.00 in0.0 mm 0.33 in8.4 mm
08:25 AM 55.4°F13.0°C 54.6°F12.6°C 97% Calm Calm 2.5 mph4.0 kmh 29.95 in1014.2 mb 0.12 in3.0 mm 0.48 in12.2 mm 0.33 in8.4 mm
08:20 AM 55.4°F13.0°C 54.6°F12.6°C 97% Calm Calm 2.2 mph3.5 kmh 29.95 in1014.2 mb 0.08 in2.0 mm 0.00 in0.0 mm 0.29 in7.4 mm
08:15 AM 55.4°F13.0°C 54.6°F12.6°C 97% Calm Calm 2.2 mph3.5 kmh 29.95 in1014.2 mb 0.08 in2.0 mm 0.00 in0.0 mm 0.29 in7.4 mm
08:10 AM 55.4°F13.0°C 54.6°F12.6°C 97% Calm Calm 2.0 mph3.2 kmh 29.95 in1014.2 mb 0.08 in2.0 mm 0.48 in12.2 mm 0.29 in7.4 mm
08:05 AM 55.2°F12.9°C 54.4°F12.4°C 97% Calm Calm 2.0 mph3.2 kmh 29.95 in1014.2 mb 0.04 in1.0 mm 0.00 in0.0 mm 0.25 in6.4 mm
08:00 AM 55.0°F12.8°C 54.2°F12.3°C 97% Calm Calm 3.6 mph5.8 kmh 29.95 in1014.2 mb 0.04 in1.0 mm 0.00 in0.0 mm 0.25 in6.4 mm
07:55 AM 55.0°F12.8°C 54.2°F12.3°C 97% 2.5 mph WSW4.0 kmh WSW 3.6 mph5.8 kmh 29.95 in1014.2 mb 0.04 in1.0 mm 0.48 in12.2 mm 0.25 in6.4 mm
07:50 AM 55.0°F12.8°C 54.2°F12.3°C 97% Calm Calm 0.9 mph1.4 kmh 29.95 in1014.2 mb 0.00 in0.0 mm 0.00 in0.0 mm 0.21 in5.3 mm
07:45 AM 54.9°F12.7°C 54.0°F12.2°C 97% Calm Calm 0.9 mph1.4 kmh 29.95 in1014.2 mb 0.04 in1.0 mm 0.00 in0.0 mm 0.21 in5.3 mm
07:40 AM 54.9°F12.7°C 54.0°F12.2°C 97% Calm Calm -- 29.95 in1014.2 mb 0.04 in1.0 mm 0.00 in0.0 mm 0.21 in5.3 mm
07:35 AM 54.9°F12.7°C 54.0°F12.2°C 97% Calm Calm 1.6 mph2.6 kmh 29.95 in1014.2 mb 0.04 in1.0 mm 0.00 in0.0 mm 0.21 in5.3 mm
07:30 AM 54.7°F12.6°C 53.8°F12.1°C 97% 1.1 mph ENE1.8 kmh ENE 1.6 mph2.6 kmh 29.95 in1014.2 mb 0.04 in1.0 mm 0.00 in0.0 mm 0.21 in5.3 mm
07:25 AM 54.7°F12.6°C 53.8°F12.1°C 97% Calm Calm 1.3 mph2.1 kmh 29.95 in1014.2 mb 0.04 in1.0 mm 0.00 in0.0 mm 0.21 in5.3 mm
07:20 AM 54.7°F12.6°C 53.8°F12.1°C 97% Calm Calm 1.3 mph2.1 kmh 29.95 in1014.2 mb 0.04 in1.0 mm 0.00 in0.0 mm 0.21 in5.3 mm
07:15 AM 54.7°F12.6°C 53.8°F12.1°C 97% Calm Calm 1.1 mph1.8 kmh 29.95 in1014.2 mb 0.04 in1.0 mm 0.00 in0.0 mm 0.21 in5.3 mm
07:10 AM 54.7°F12.6°C 53.8°F12.1°C 97% Calm Calm -- 29.95 in1014.2 mb 0.04 in1.0 mm 0.00 in0.0 mm 0.21 in5.3 mm
07:05 AM 54.5°F12.5°C 53.7°F12.1°C 97% Calm Calm 1.3 mph2.1 kmh 29.95 in1014.2 mb 0.08 in2.0 mm 0.00 in0.0 mm 0.21 in5.3 mm
07:00 AM 54.5°F12.5°C 53.7°F12.1°C 97% Calm Calm 2.2 mph3.5 kmh 29.95 in1014.2 mb 0.08 in2.0 mm 0.00 in0.0 mm 0.21 in5.3 mm
06:55 AM 54.5°F12.5°C 53.7°F12.1°C 97% Calm Calm 2.2 mph3.5 kmh 29.95 in1014.2 mb 0.08 in2.0 mm 0.00 in0.0 mm 0.21 in5.3 mm
06:50 AM 54.5°F12.5°C 53.7°F12.1°C 97% Calm Calm -- 29.92 in1013.2 mb 0.08 in2.0 mm 0.48 in12.2 mm 0.21 in5.3 mm
06:45 AM 54.5°F12.5°C 53.7°F12.1°C 97% Calm Calm -- 29.92 in1013.2 mb 0.04 in1.0 mm 0.00 in0.0 mm 0.17 in4.3 mm
06:40 AM 54.5°F12.5°C 53.7°F12.1°C 97% Calm Calm -- 29.92 in1013.2 mb 0.04 in1.0 mm 0.00 in0.0 mm 0.17 in4.3 mm
06:35 AM 54.5°F12.5°C 53.7°F12.1°C 97% Calm Calm -- 29.92 in1013.2 mb 0.04 in1.0 mm 0.00 in0.0 mm 0.17 in4.3 mm
06:30 AM 54.5°F12.5°C 53.7°F12.1°C 97% Calm Calm -- 29.92 in1013.2 mb 0.04 in1.0 mm 0.00 in0.0 mm 0.17 in4.3 mm
06:25 AM 54.5°F12.5°C 53.7°F12.1°C 97% Calm Calm 2.9 mph4.7 kmh 29.92 in1013.2 mb 0.04 in1.0 mm 0.00 in0.0 mm 0.17 in4.3 mm
06:20 AM 54.3°F12.4°C 53.5°F11.9°C 97% Calm Calm 3.1 mph5.0 kmh 29.92 in1013.2 mb 0.04 in1.0 mm 0.00 in0.0 mm 0.17 in4.3 mm
06:15 AM 54.3°F12.4°C 53.5°F11.9°C 97% 2.7 mph E4.3 kmh E 3.1 mph5.0 kmh 29.92 in1013.2 mb 0.04 in1.0 mm 0.48 in12.2 mm 0.17 in4.3 mm
06:10 AM 54.3°F12.4°C 53.5°F11.9°C 97% 1.1 mph SE1.8 kmh SE 1.6 mph2.6 kmh 29.92 in1013.2 mb 0.00 in0.0 mm 0.00 in0.0 mm 0.13 in3.3 mm
06:05 AM 54.3°F12.4°C 53.5°F11.9°C 97% Calm Calm -- 29.86 in1011.2 mb 0.00 in0.0 mm 0.00 in0.0 mm 0.13 in3.3 mm
06:00 AM 54.3°F12.4°C 53.5°F11.9°C 97% Calm Calm -- 29.86 in1011.2 mb 0.00 in0.0 mm 0.00 in0.0 mm 0.13 in3.3 mm
05:55 AM 54.3°F12.4°C 53.5°F11.9°C 97% Calm Calm -- 29.86 in1011.2 mb 0.00 in0.0 mm 0.00 in0.0 mm 0.13 in3.3 mm
05:50 AM 54.3°F12.4°C 53.2°F11.8°C 96% Calm Calm -- 29.89 in1012.2 mb 0.00 in0.0 mm 0.00 in0.0 mm 0.13 in3.3 mm
05:45 AM 54.3°F12.4°C 53.2°F11.8°C 96% Calm Calm -- 29.89 in1012.2 mb 0.04 in1.0 mm 0.00 in0.0 mm 0.13 in3.3 mm
05:40 AM 54.1°F12.3°C 53.0°F11.7°C 96% Calm Calm -- 29.89 in1012.2 mb 0.04 in1.0 mm 0.00 in0.0 mm 0.13 in3.3 mm
05:35 AM 54.1°F12.3°C 53.3°F11.8°C 97% Calm Calm -- 29.89 in1012.2 mb 0.04 in1.0 mm 0.00 in0.0 mm 0.13 in3.3 mm
05:30 AM 54.1°F12.3°C 53.3°F11.8°C 97% Calm Calm -- 29.89 in1012.2 mb 0.04 in1.0 mm 0.00 in0.0 mm 0.13 in3.3 mm
05:25 AM 54.1°F12.3°C 53.3°F11.8°C 97% Calm Calm -- 29.89 in1012.2 mb 0.04 in1.0 mm 0.00 in0.0 mm 0.13 in3.3 mm
05:20 AM 54.1°F12.3°C 53.0°F11.7°C 96% Calm Calm -- 29.89 in1012.2 mb 0.04 in1.0 mm 0.00 in0.0 mm 0.13 in3.3 mm
05:15 AM 54.1°F12.3°C 53.0°F11.7°C 96% Calm Calm -- 29.89 in1012.2 mb 0.04 in1.0 mm 0.00 in0.0 mm 0.13 in3.3 mm
05:10 AM 54.1°F12.3°C 53.0°F11.7°C 96% Calm Calm -- 29.89 in1012.2 mb 0.04 in1.0 mm 0.00 in0.0 mm 0.13 in3.3 mm
05:05 AM 54.1°F12.3°C 53.0°F11.7°C 96% Calm Calm -- 29.89 in1012.2 mb 0.04 in1.0 mm 0.00 in0.0 mm 0.13 in3.3 mm
05:00 AM 54.1°F12.3°C 53.0°F11.7°C 96% Calm Calm -- 29.89 in1012.2 mb 0.04 in1.0 mm 0.00 in0.0 mm 0.13 in3.3 mm
04:55 AM 54.1°F12.3°C 53.0°F11.7°C 96% Calm Calm -- 29.89 in1012.2 mb 0.04 in1.0 mm 0.00 in0.0 mm 0.13 in3.3 mm
04:50 AM 54.1°F12.3°C 53.0°F11.7°C 96% Calm Calm 2.2 mph3.5 kmh 29.89 in1012.2 mb 0.04 in1.0 mm 0.00 in0.0 mm 0.13 in3.3 mm
04:45 AM 54.1°F12.3°C 53.0°F11.7°C 96% Calm Calm 2.2 mph3.5 kmh 29.89 in1012.2 mb 0.05 in1.3 mm 0.00 in0.0 mm 0.09 in2.3 mm
04:40 AM 54.1°F12.3°C 53.0°F11.7°C 96% Calm Calm 1.1 mph1.8 kmh 29.89 in1012.2 mb 0.05 in1.3 mm 0.00 in0.0 mm 0.09 in2.3 mm
04:35 AM 54.1°F12.3°C 53.0°F11.7°C 96% Calm Calm -- 29.89 in1012.2 mb 0.05 in1.3 mm 0.00 in0.0 mm 0.09 in2.3 mm
04:30 AM 54.1°F12.3°C 53.0°F11.7°C 96% Calm Calm 0.9 mph1.4 kmh 29.89 in1012.2 mb 0.05 in1.3 mm 0.00 in0.0 mm 0.09 in2.3 mm
04:25 AM 54.1°F12.3°C 53.0°F11.7°C 96% Calm Calm 0.9 mph1.4 kmh 29.89 in1012.2 mb 0.05 in1.3 mm 0.00 in0.0 mm 0.09 in2.3 mm
04:20 AM 54.0°F12.2°C 52.8°F11.6°C 96% Calm Calm 1.3 mph2.1 kmh 29.86 in1011.2 mb 0.05 in1.3 mm 0.00 in0.0 mm 0.09 in2.3 mm
04:15 AM 54.1°F12.3°C 53.0°F11.7°C 96% Calm Calm 1.3 mph2.1 kmh 29.86 in1011.2 mb 0.05 in1.3 mm 0.00 in0.0 mm 0.09 in2.3 mm
04:10 AM 54.0°F12.2°C 52.8°F11.6°C 96% Calm Calm -- 29.86 in1011.2 mb 0.05 in1.3 mm 0.00 in0.0 mm 0.09 in2.3 mm
04:05 AM 54.0°F12.2°C 52.8°F11.6°C 96% Calm Calm -- 29.89 in1012.2 mb 0.05 in1.3 mm 0.00 in0.0 mm 0.09 in2.3 mm
04:00 AM 54.0°F12.2°C 52.8°F11.6°C 96% Calm Calm 1.1 mph1.8 kmh 29.89 in1012.2 mb 0.05 in1.3 mm 0.00 in0.0 mm 0.09 in2.3 mm
03:55 AM 54.0°F12.2°C 52.8°F11.6°C 96% Calm Calm 1.1 mph1.8 kmh 29.89 in1012.2 mb 0.05 in1.3 mm 0.60 in15.2 mm 0.09 in2.3 mm
03:50 AM 54.0°F12.2°C 52.8°F11.6°C 96% Calm Calm -- 29.89 in1012.2 mb 0.00 in0.0 mm 0.00 in0.0 mm 0.04 in1.0 mm
03:45 AM 54.0°F12.2°C 52.8°F11.6°C 96% Calm Calm -- 29.89 in1012.2 mb 0.00 in0.0 mm 0.00 in0.0 mm 0.04 in1.0 mm
03:35 AM 54.0°F12.2°C 52.8°F11.6°C 96% Calm Calm 2.2 mph3.5 kmh 29.86 in1011.2 mb 0.00 in0.0 mm 0.00 in0.0 mm 0.04 in1.0 mm
03:30 AM 54.0°F12.2°C 52.8°F11.6°C 96% 1.6 mph SSE2.6 kmh SSE 2.2 mph3.5 kmh 29.86 in1011.2 mb 0.00 in0.0 mm 0.00 in0.0 mm 0.04 in1.0 mm
03:25 AM 54.0°F12.2°C 52.8°F11.6°C 96% Calm Calm -- 29.86 in1011.2 mb 0.00 in0.0 mm 0.00 in0.0 mm 0.04 in1.0 mm
03:20 AM 54.0°F12.2°C 52.8°F11.6°C 96% Calm Calm -- 29.86 in1011.2 mb 0.00 in0.0 mm 0.00 in0.0 mm 0.04 in1.0 mm
03:15 AM 54.0°F12.2°C 52.8°F11.6°C 96% Calm Calm -- 29.86 in1011.2 mb 0.00 in0.0 mm 0.00 in0.0 mm 0.04 in1.0 mm
03:10 AM 54.0°F12.2°C 52.8°F11.6°C 96% Calm Calm -- 29.86 in1011.2 mb 0.00 in0.0 mm 0.00 in0.0 mm 0.04 in1.0 mm
03:05 AM 54.0°F12.2°C 52.8°F11.6°C 96% Calm Calm -- 29.86 in1011.2 mb 0.00 in0.0 mm 0.00 in0.0 mm 0.04 in1.0 mm
03:00 AM 54.0°F12.2°C 52.8°F11.6°C 96% Calm Calm -- 29.86 in1011.2 mb 0.00 in0.0 mm 0.00 in0.0 mm 0.04 in1.0 mm
02:55 AM 54.0°F12.2°C 52.8°F11.6°C 96% Calm Calm -- 29.86 in1011.2 mb 0.00 in0.0 mm 0.00 in0.0 mm 0.04 in1.0 mm
02:50 AM 54.0°F12.2°C 52.8°F11.6°C 96% Calm Calm 2.7 mph4.3 kmh 29.86 in1011.2 mb 0.00 in0.0 mm 0.00 in0.0 mm 0.04 in1.0 mm
02:45 AM 54.0°F12.2°C 52.8°F11.6°C 96% Calm Calm 2.7 mph4.3 kmh 29.86 in1011.2 mb 0.00 in0.0 mm 0.00 in0.0 mm 0.04 in1.0 mm
02:40 AM 54.0°F12.2°C 52.8°F11.6°C 96% Calm Calm -- 29.86 in1011.2 mb 0.00 in0.0 mm 0.00 in0.0 mm 0.04 in1.0 mm
02:35 AM 54.0°F12.2°C 52.8°F11.6°C 96% Calm Calm -- 29.86 in1011.2 mb 0.00 in0.0 mm 0.00 in0.0 mm 0.04 in1.0 mm
02:30 AM 54.0°F12.2°C 52.8°F11.6°C 96% Calm Calm -- 29.86 in1011.2 mb 0.00 in0.0 mm 0.00 in0.0 mm 0.04 in1.0 mm
02:25 AM 54.0°F12.2°C 52.8°F11.6°C 96% Calm Calm -- 29.86 in1011.2 mb 0.00 in0.0 mm 0.00 in0.0 mm 0.04 in1.0 mm
02:20 AM 54.0°F12.2°C 52.8°F11.6°C 96% Calm Calm -- 29.86 in1011.2 mb 0.00 in0.0 mm 0.00 in0.0 mm 0.04 in1.0 mm
02:15 AM 54.0°F12.2°C 52.8°F11.6°C 96% Calm Calm -- 29.86 in1011.2 mb 0.00 in0.0 mm 0.00 in0.0 mm 0.04 in1.0 mm
02:10 AM 54.0°F12.2°C 52.8°F11.6°C 96% Calm Calm -- 29.86 in1011.2 mb 0.00 in0.0 mm 0.00 in0.0 mm 0.04 in1.0 mm
02:05 AM 54.0°F12.2°C 52.8°F11.6°C 96% Calm Calm -- 29.86 in1011.2 mb 0.04 in1.0 mm 0.00 in0.0 mm 0.04 in1.0 mm
02:00 AM 54.0°F12.2°C 52.8°F11.6°C 96% Calm Calm -- 29.86 in1011.2 mb 0.04 in1.0 mm 0.00 in0.0 mm 0.04 in1.0 mm
01:55 AM 54.0°F12.2°C 52.8°F11.6°C 96% Calm Calm -- 29.86 in1011.2 mb 0.04 in1.0 mm 0.00 in0.0 mm 0.04 in1.0 mm
01:50 AM 54.0°F12.2°C 52.8°F11.6°C 96% Calm Calm 0.9 mph1.4 kmh 29.86 in1011.2 mb 0.04 in1.0 mm 0.00 in0.0 mm 0.04 in1.0 mm
01:45 AM 54.0°F12.2°C 52.8°F11.6°C 96% Calm Calm 2.0 mph3.2 kmh 29.86 in1011.2 mb 0.04 in1.0 mm 0.00 in0.0 mm 0.04 in1.0 mm
01:40 AM 54.0°F12.2°C 52.8°F11.6°C 96% Calm Calm 2.0 mph3.2 kmh 29.86 in1011.2 mb 0.04 in1.0 mm 0.00 in0.0 mm 0.04 in1.0 mm
01:35 AM 54.0°F12.2°C 52.8°F11.6°C 96% 0.9 mph E1.4 kmh E 2.0 mph3.2 kmh 29.86 in1011.2 mb 0.04 in1.0 mm 0.00 in0.0 mm 0.04 in1.0 mm
01:30 AM 54.0°F12.2°C 52.8°F11.6°C 96% Calm Calm -- 29.86 in1011.2 mb 0.04 in1.0 mm 0.00 in0.0 mm 0.04 in1.0 mm
01:25 AM 54.0°F12.2°C 52.6°F11.4°C 95% Calm Calm 3.4 mph5.5 kmh 29.86 in1011.2 mb 0.04 in1.0 mm 0.00 in0.0 mm 0.04 in1.0 mm
01:20 AM 54.0°F12.2°C 52.6°F11.4°C 95% Calm Calm 3.4 mph5.5 kmh 29.86 in1011.2 mb 0.04 in1.0 mm 0.00 in0.0 mm 0.04 in1.0 mm
01:15 AM 54.0°F12.2°C 52.6°F11.4°C 95% Calm Calm 2.5 mph4.0 kmh 29.86 in1011.2 mb 0.04 in1.0 mm 0.00 in0.0 mm 0.04 in1.0 mm
01:10 AM 54.0°F12.2°C 52.6°F11.4°C 95% 1.3 mph ESE2.1 kmh ESE 2.2 mph3.5 kmh 29.86 in1011.2 mb 0.04 in1.0 mm 0.48 in12.2 mm 0.04 in1.0 mm
01:05 AM 54.0°F12.2°C 52.6°F11.4°C 95% Calm Calm 3.4 mph5.5 kmh 29.86 in1011.2 mb 0.00 in0.0 mm 0.00 in0.0 mm 0.00 in0.0 mm
01:00 AM 54.0°F12.2°C 52.6°F11.4°C 95% Calm Calm 3.4 mph5.5 kmh 29.86 in1011.2 mb 0.00 in0.0 mm 0.00 in0.0 mm 0.00 in0.0 mm
12:55 AM 54.0°F12.2°C 52.6°F11.4°C 95% Calm Calm 2.7 mph4.3 kmh 29.86 in1011.2 mb 0.00 in0.0 mm 0.00 in0.0 mm 0.00 in0.0 mm
12:50 AM 54.0°F12.2°C 52.6°F11.4°C 95% Calm Calm 2.7 mph4.3 kmh 29.86 in1011.2 mb 0.00 in0.0 mm 0.00 in0.0 mm 0.00 in0.0 mm
12:45 AM 54.0°F12.2°C 52.6°F11.4°C 95% Calm Calm 1.1 mph1.8 kmh 29.86 in1011.2 mb 0.00 in0.0 mm 0.00 in0.0 mm 0.00 in0.0 mm
12:40 AM 54.0°F12.2°C 52.6°F11.4°C 95% Calm Calm 2.0 mph3.2 kmh 29.86 in1011.2 mb 0.00 in0.0 mm 0.00 in0.0 mm 0.00 in0.0 mm
12:35 AM 53.8°F12.1°C 52.4°F11.3°C 95% 1.3 mph SE2.1 kmh SE 2.0 mph3.2 kmh 29.86 in1011.2 mb 0.00 in0.0 mm 0.00 in0.0 mm 0.00 in0.0 mm
12:30 AM 54.0°F12.2°C 52.6°F11.4°C 95% Calm Calm -- 29.86 in1011.2 mb 0.00 in0.0 mm 0.00 in0.0 mm 0.00 in0.0 mm
12:25 AM 53.8°F12.1°C 52.4°F11.3°C 95% Calm Calm 1.3 mph2.1 kmh 29.86 in1011.2 mb 0.00 in0.0 mm 0.00 in0.0 mm 0.00 in0.0 mm
12:20 AM 53.8°F12.1°C 52.4°F11.3°C 95% Calm Calm 2.7 mph4.3 kmh 29.86 in1011.2 mb 0.00 in0.0 mm 0.00 in0.0 mm 0.00 in0.0 mm
12:15 AM 53.8°F12.1°C 52.1°F11.2°C 94% 2.2 mph SSE3.5 kmh SSE 2.7 mph4.3 kmh 29.86 in1011.2 mb 0.00 in0.0 mm 0.00 in0.0 mm 0.00 in0.0 mm
12:10 AM 54.0°F12.2°C 52.3°F11.3°C 94% Calm Calm 2.2 mph3.5 kmh 29.86 in1011.2 mb 0.00 in0.0 mm 0.00 in0.0 mm 0.00 in0.0 mm
12:05 AM 53.8°F12.1°C 52.1°F11.2°C 94% Calm Calm 2.2 mph3.5 kmh 29.86 in1011.2 mb 0.00 in0.0 mm 0.00 in0.0 mm 0.00 in0.0 mm
12:00 AM 53.8°F12.1°C 52.1°F11.2°C 94% Calm Calm 1.6 mph2.6 kmh 29.86 in1011.2 mb 0.00 in0.0 mm 0.00 in0.0 mm 0.00 in0.0 mm